Time;durP1;ratioP1;P1;durP2;ratioP2;P2;SDS_P1;SDS_P2;PMS_P1;PMS_P2;Temp;Humidity;BMP_temperature;BMP_pressure;BME280_temperature;BME280_humidity;BME280_pressure;Samples;Min_cycle;Max_cycle;Signal;HPM_P1;HPM_P2
2023/01/02 00:00:31;;;;;;;36.58;18.00;;;;;;;;;;6255925;28;20041;-65
2023/01/02 00:03:56;;;;;;;34.72;17.42;;;;;;;;;;6257990;28;20534;-63
2023/01/02 00:06:57;;;;;;;39.13;16.85;;;;;;;;;;6260177;28;20391;-61
2023/01/02 00:09:58;;;;;;;87.37;35.00;;;;;;;;;;6257427;28;20049;-63
2023/01/02 00:12:58;;;;;;;52.95;23.73;;;;;;;;;;6257713;28;20052;-63
2023/01/02 00:15:59;;;;;;;50.20;21.33;;;;;;;;;;6256318;28;20049;-64
2023/01/02 00:18:59;;;;;;;62.15;25.70;;;;;;;;;;6250397;28;20096;-63
2023/01/02 00:22:00;;;;;;;45.78;22.02;;;;;;;;;;6245649;28;20107;-66
2023/01/02 00:25:01;;;;;;;38.95;18.40;;;;;;;;;;6247763;28;20049;-63
2023/01/02 00:28:03;;;;;;;42.00;22.13;;;;;;;;;;6253595;28;20590;-65
2023/01/02 00:31:08;;;;;;;44.03;22.13;;;;;;;;;;6265946;28;20076;-66
2023/01/02 00:34:09;;;;;;;37.58;16.65;;;;;;;;;;6267064;28;20053;-63
2023/01/02 00:37:09;;;;;;;51.67;21.05;;;;;;;;;;6260977;28;20491;-63
2023/01/02 00:40:12;;;;;;;49.15;20.77;;;;;;;;;;6243037;28;20073;-64
2023/01/02 00:43:13;;;;;;;48.33;19.83;;;;;;;;;;6255452;28;20052;-67
2023/01/02 00:46:14;;;;;;;48.67;20.73;;;;;;;;;;6243454;28;20463;-66
2023/01/02 00:49:15;;;;;;;44.33;19.20;;;;;;;;;;6241206;28;20403;-65
2023/01/02 00:52:17;;;;;;;39.30;17.55;;;;;;;;;;6243910;28;20045;-63
2023/01/02 00:55:17;;;;;;;48.50;25.33;;;;;;;;;;6253491;28;20487;-63
2023/01/02 00:58:19;;;;;;;37.90;17.98;;;;;;;;;;6250986;28;20912;-63
2023/01/02 01:01:20;;;;;;;32.35;14.98;;;;;;;;;;6247470;28;20087;-63
2023/01/02 01:04:20;;;;;;;44.45;19.80;;;;;;;;;;6242541;28;20068;-65
2023/01/02 01:07:21;;;;;;;45.88;19.75;;;;;;;;;;6243927;28;20045;-63
2023/01/02 01:10:23;;;;;;;42.00;22.23;;;;;;;;;;6245078;28;20694;-65
2023/01/02 01:13:24;;;;;;;39.95;16.92;;;;;;;;;;6245258;28;20041;-63
2023/01/02 01:16:25;;;;;;;48.17;20.38;;;;;;;;;;6241065;28;20099;-63
2023/01/02 01:19:30;;;;;;;56.08;23.40;;;;;;;;;;6241792;28;20056;-63
2023/01/02 01:22:31;;;;;;;54.05;23.42;;;;;;;;;;6242038;28;20053;-62
2023/01/02 01:25:32;;;;;;;56.25;24.52;;;;;;;;;;6246375;28;20459;-62
2023/01/02 01:28:33;;;;;;;56.95;27.00;;;;;;;;;;6246251;28;20126;-63
2023/01/02 01:31:34;;;;;;;44.10;19.95;;;;;;;;;;6242652;28;21266;-63
2023/01/02 01:34:34;;;;;;;47.55;22.40;;;;;;;;;;6244946;28;20061;-66
2023/01/02 01:37:38;;;;;;;55.05;22.08;;;;;;;;;;6245123;28;20045;-63
2023/01/02 01:40:39;;;;;;;46.85;21.90;;;;;;;;;;6242021;28;20075;-66
2023/01/02 01:43:49;;;;;;;64.05;28.02;;;;;;;;;;6241755;28;20049;-64
2023/01/02 01:46:50;;;;;;;57.33;26.15;;;;;;;;;;6245214;28;20047;-63
2023/01/02 01:49:55;;;;;;;57.70;30.30;;;;;;;;;;6242201;28;20049;-64
2023/01/02 01:53:02;;;;;;;60.72;31.42;;;;;;;;;;6238123;28;20503;-63
2023/01/02 01:56:06;;;;;;;56.08;24.88;;;;;;;;;;6241631;28;20057;-64
2023/01/02 01:59:08;;;;;;;51.35;24.92;;;;;;;;;;6240119;28;20050;-65
2023/01/02 02:02:09;;;;;;;50.40;25.23;;;;;;;;;;6241765;28;20147;-62
2023/01/02 02:05:11;;;;;;;52.50;23.70;;;;;;;;;;6239554;28;20050;-63
2023/01/02 02:08:11;;;;;;;59.65;25.98;;;;;;;;;;6242982;28;20041;-63
2023/01/02 02:11:13;;;;;;;56.05;26.08;;;;;;;;;;6242930;28;20130;-63
2023/01/02 02:14:13;;;;;;;65.00;29.92;;;;;;;;;;6240593;28;20136;-64
2023/01/02 02:17:47;;;;;;;65.65;30.05;;;;;;;;;;6265667;28;20488;-66
2023/01/02 02:21:18;;;;;;;56.05;25.65;;;;;;;;;;6243274;28;21225;-63
2023/01/02 02:24:57;;;;;;;49.80;23.48;;;;;;;;;;6249238;28;20059;-63
2023/01/02 02:28:38;;;;;;;59.25;27.00;;;;;;;;;;6244512;28;20581;-63
2023/01/02 02:32:12;;;;;;;63.97;26.77;;;;;;;;;;6244362;28;20053;-64
2023/01/02 02:35:24;;;;;;;60.70;27.95;;;;;;;;;;6247427;28;20301;-63
2023/01/02 02:38:53;;;;;;;74.60;36.47;;;;;;;;;;6242765;28;20049;-63
2023/01/02 02:42:03;;;;;;;58.47;29.05;;;;;;;;;;6261873;28;20452;-64
2023/01/02 02:45:32;;;;;;;61.47;27.52;;;;;;;;;;6258642;28;20061;-65
2023/01/02 02:48:55;;;;;;;60.10;26.80;;;;;;;;;;6246958;28;20484;-63
2023/01/02 02:52:07;;;;;;;62.60;28.67;;;;;;;;;;6244148;28;20093;-63
2023/01/02 02:55:10;;;;;;;69.82;35.08;;;;;;;;;;6244434;28;20140;-63
2023/01/02 02:58:12;;;;;;;72.50;34.13;;;;;;;;;;6265917;28;20133;-63
2023/01/02 03:01:15;;;;;;;63.55;32.55;;;;;;;;;;6246258;28;20147;-63
2023/01/02 03:04:18;;;;;;;81.32;43.38;;;;;;;;;;6243450;28;21173;-63
2023/01/02 03:07:34;;;;;;;67.75;31.55;;;;;;;;;;6243998;28;20083;-62
2023/01/02 03:10:48;;;;;;;66.93;31.35;;;;;;;;;;6243428;28;20064;-63
2023/01/02 03:13:52;;;;;;;68.47;33.45;;;;;;;;;;6246744;28;20048;-63
2023/01/02 03:17:01;;;;;;;65.90;29.95;;;;;;;;;;6242517;28;20056;-62
2023/01/02 03:20:08;;;;;;;74.47;36.38;;;;;;;;;;6243892;28;20073;-63
2023/01/02 03:23:16;;;;;;;75.85;35.38;;;;;;;;;;6248891;28;20416;-62
2023/01/02 03:26:26;;;;;;;81.35;38.05;;;;;;;;;;6267198;28;20053;-62
2023/01/02 03:29:30;;;;;;;80.40;35.28;;;;;;;;;;6253515;28;20090;-63
2023/01/02 03:32:43;;;;;;;84.38;38.63;;;;;;;;;;6255315;28;20053;-63
2023/01/02 03:35:47;;;;;;;90.03;39.35;;;;;;;;;;6245274;28;20052;-63
2023/01/02 03:38:54;;;;;;;86.65;38.00;;;;;;;;;;6245556;28;20053;-62
2023/01/02 03:42:00;;;;;;;78.70;35.95;;;;;;;;;;6247665;28;20045;-63
2023/01/02 03:45:21;;;;;;;81.60;35.53;;;;;;;;;;6246020;28;20483;-62
2023/01/02 03:48:52;;;;;;;93.13;40.28;;;;;;;;;;6247187;28;20156;-62
2023/01/02 03:51:53;;;;;;;91.70;40.47;;;;;;;;;;6256982;28;20048;-63
2023/01/02 03:54:55;;;;;;;80.57;33.45;;;;;;;;;;6253110;28;20049;-62
2023/01/02 03:58:02;;;;;;;;;;;;;;;;;;6246686;28;20076;-62
2023/01/02 04:01:08;;;;;;;98.80;41.65;;;;;;;;;;6269285;28;20478;-63
2023/01/02 04:04:16;;;;;;;104.88;45.28;;;;;;;;;;6251445;28;20053;-62
2023/01/02 04:07:27;;;;;;;109.03;44.10;;;;;;;;;;6245487;28;20557;-62
2023/01/02 04:10:29;;;;;;;94.20;39.75;;;;;;;;;;6242414;28;20827;-62
2023/01/02 04:13:54;;;;;;;100.60;39.05;;;;;;;;;;6245592;28;20496;-63
2023/01/02 04:16:58;;;;;;;84.60;36.55;;;;;;;;;;6246129;28;20183;-66
2023/01/02 04:20:09;;;;;;;90.90;38.38;;;;;;;;;;6242910;28;20057;-62
2023/01/02 04:23:15;;;;;;;97.95;39.28;;;;;;;;;;6242879;28;20075;-62
2023/01/02 04:26:22;;;;;;;91.25;40.10;;;;;;;;;;6243519;28;20048;-62
2023/01/02 04:29:22;;;;;;;89.10;39.33;;;;;;;;;;6246072;28;20408;-63
2023/01/02 04:32:26;;;;;;;98.63;40.72;;;;;;;;;;6247578;28;20136;-64
2023/01/02 04:35:27;;;;;;;100.03;41.95;;;;;;;;;;6239957;28;20053;-63
2023/01/02 04:38:28;;;;;;;108.67;42.63;;;;;;;;;;6253524;28;20094;-64
2023/01/02 04:41:29;;;;;;;94.97;37.70;;;;;;;;;;6261689;28;20497;-64
2023/01/02 04:44:30;;;;;;;86.93;37.70;;;;;;;;;;6242279;28;20040;-63
2023/01/02 04:47:30;;;;;;;130.60;55.80;;;;;;;;;;6242398;28;20056;-66
2023/01/02 04:50:31;;;;;;;128.95;53.45;;;;;;;;;;6242771;28;20083;-63
2023/01/02 04:53:32;;;;;;;130.15;55.35;;;;;;;;;;6251904;28;22324;-64
2023/01/02 04:56:32;;;;;;;121.80;52.78;;;;;;;;;;6244295;28;20143;-61
2023/01/02 04:59:33;;;;;;;123.15;55.20;;;;;;;;;;6237782;28;20048;-63
2023/01/02 05:02:35;;;;;;;122.22;53.33;;;;;;;;;;6241633;28;20144;-63
2023/01/02 05:05:35;;;;;;;125.10;55.10;;;;;;;;;;6241840;28;20377;-63
2023/01/02 05:08:37;;;;;;;127.05;57.20;;;;;;;;;;6247603;28;20053;-63
2023/01/02 05:11:37;;;;;;;135.55;57.15;;;;;;;;;;6242350;28;20064;-64
2023/01/02 05:14:38;;;;;;;134.93;59.33;;;;;;;;;;6242492;28;20049;-63
2023/01/02 05:17:40;;;;;;;130.52;51.75;;;;;;;;;;6246276;28;20114;-63
2023/01/02 05:20:41;;;;;;;120.72;50.38;;;;;;;;;;6256177;28;20136;-63
2023/01/02 05:23:48;;;;;;;113.03;46.45;;;;;;;;;;6257171;28;20475;-66
2023/01/02 05:26:48;;;;;;;118.90;46.83;;;;;;;;;;6250411;28;20045;-62
2023/01/02 05:29:49;;;;;;;120.40;49.30;;;;;;;;;;6247688;28;20558;-62
2023/01/02 05:32:49;;;;;;;116.00;46.15;;;;;;;;;;6250356;28;20614;-63
2023/01/02 05:35:50;;;;;;;116.85;47.53;;;;;;;;;;6244330;28;20041;-63
2023/01/02 05:38:51;;;;;;;107.65;45.15;;;;;;;;;;6259399;28;20075;-66
2023/01/02 05:41:52;;;;;;;105.97;46.45;;;;;;;;;;6254929;28;20081;-63
2023/01/02 05:44:52;;;;;;;114.53;47.13;;;;;;;;;;6246032;28;20480;-64
2023/01/02 05:47:53;;;;;;;113.30;43.85;;;;;;;;;;6262355;28;20376;-63
2023/01/02 05:50:54;;;;;;;109.22;45.63;;;;;;;;;;6258187;28;20426;-63
2023/01/02 05:53:54;;;;;;;164.18;43.20;;;;;;;;;;6265129;28;20053;-63
2023/01/02 05:56:55;;;;;;;109.35;44.33;;;;;;;;;;6244096;28;20399;-64
2023/01/02 05:59:56;;;;;;;103.28;46.00;;;;;;;;;;6247297;28;20499;-65
2023/01/02 06:02:58;;;;;;;109.57;43.85;;;;;;;;;;6246773;28;20044;-63
2023/01/02 06:06:03;;;;;;;112.53;47.22;;;;;;;;;;6237718;28;20098;-63
2023/01/02 06:09:05;;;;;;;104.57;44.47;;;;;;;;;;6237849;28;20059;-63
2023/01/02 06:12:08;;;;;;;115.85;45.75;;;;;;;;;;6243491;28;20138;-64
2023/01/02 06:15:08;;;;;;;;;;;;;;;;;;6242504;28;20408;-65
2023/01/02 06:18:09;;;;;;;103.45;43.40;;;;;;;;;;6256441;28;19925;-64
2023/01/02 06:21:12;;;;;;;95.53;42.15;;;;;;;;;;6262430;28;20081;-63
2023/01/02 06:24:13;;;;;;;112.68;46.55;;;;;;;;;;6261246;28;20123;-63
2023/01/02 06:27:14;;;;;;;121.60;51.30;;;;;;;;;;6258364;28;20056;-63
2023/01/02 06:30:14;;;;;;;103.57;46.70;;;;;;;;;;6264709;28;20109;-65
2023/01/02 06:33:15;;;;;;;98.32;40.65;;;;;;;;;;6258210;28;20074;-66
2023/01/02 06:36:17;;;;;;;108.63;46.60;;;;;;;;;;6258557;28;20072;-66
2023/01/02 06:39:17;;;;;;;;;;;;;;;;;;6250686;28;20049;-65
2023/01/02 06:42:18;;;;;;;90.80;38.15;;;;;;;;;;6243278;28;19936;-65
2023/01/02 06:45:22;;;;;;;101.78;38.95;;;;;;;;;;6238734;28;20118;-65
2023/01/02 06:48:23;;;;;;;91.03;37.22;;;;;;;;;;6239935;28;20046;-65
2023/01/02 06:51:24;;;;;;;83.30;35.20;;;;;;;;;;6245759;28;20045;-65
2023/01/02 06:54:24;;;;;;;101.82;39.60;;;;;;;;;;6246158;28;20053;-65
2023/01/02 06:57:27;;;;;;;88.72;39.80;;;;;;;;;;6260958;28;20096;-65
2023/01/02 07:00:28;;;;;;;107.22;45.25;;;;;;;;;;6249811;28;20058;-65
2023/01/02 07:03:29;;;;;;;94.13;41.20;;;;;;;;;;6239844;28;20049;-65
2023/01/02 07:06:29;;;;;;;97.07;40.72;;;;;;;;;;6241589;28;20060;-65
2023/01/02 07:09:30;;;;;;;101.15;42.03;;;;;;;;;;6256214;28;20061;-68
2023/01/02 07:12:35;;;;;;;94.03;38.67;;;;;;;;;;6256930;28;20049;-66
2023/01/02 07:15:35;;;;;;;94.13;40.75;;;;;;;;;;6258519;28;20041;-65
2023/01/02 07:18:36;;;;;;;96.45;42.55;;;;;;;;;;6254550;28;20107;-65
2023/01/02 07:21:37;;;;;;;88.10;39.83;;;;;;;;;;6269554;28;20052;-65
2023/01/02 07:24:37;;;;;;;87.53;38.35;;;;;;;;;;6248819;28;20057;-64
2023/01/02 07:27:38;;;;;;;87.05;38.33;;;;;;;;;;6243888;28;20110;-65
2023/01/02 07:30:39;;;;;;;83.57;36.50;;;;;;;;;;6251289;28;20057;-66
2023/01/02 07:33:39;;;;;;;92.15;38.70;;;;;;;;;;6264675;28;20137;-65
2023/01/02 07:36:40;;;;;;;85.10;36.85;;;;;;;;;;6267819;28;20051;-64
2023/01/02 07:39:40;;;;;;;89.93;39.97;;;;;;;;;;6267125;28;20479;-64
2023/01/02 07:42:41;;;;;;;93.35;38.67;;;;;;;;;;6257025;28;20053;-65
2023/01/02 07:45:42;;;;;;;84.13;37.90;;;;;;;;;;6232850;28;20435;-69
2023/01/02 07:48:43;;;;;;;93.60;42.35;;;;;;;;;;6244762;28;20423;-63
2023/01/02 07:51:44;;;;;;;79.70;36.85;;;;;;;;;;6253099;28;20057;-64
2023/01/02 07:54:45;;;;;;;82.63;36.80;;;;;;;;;;6254119;28;20049;-64
2023/01/02 07:57:47;;;;;;;83.25;37.15;;;;;;;;;;6246299;28;20076;-65
2023/01/02 08:00:47;;;;;;;82.75;36.55;;;;;;;;;;6241936;28;20132;-64
2023/01/02 08:03:48;;;;;;;84.57;36.97;;;;;;;;;;6260986;28;20566;-64
2023/01/02 08:06:48;;;;;;;84.70;36.25;;;;;;;;;;6267899;28;20090;-64
2023/01/02 08:09:49;;;;;;;73.95;35.50;;;;;;;;;;6265969;28;20496;-64
2023/01/02 08:12:50;;;;;;;82.72;36.70;;;;;;;;;;6268291;28;20049;-65
2023/01/02 08:15:50;;;;;;;80.32;36.00;;;;;;;;;;6260475;28;20060;-64
2023/01/02 08:18:54;;;;;;;79.00;33.83;;;;;;;;;;6250363;28;20044;-69
2023/01/02 08:21:54;;;;;;;70.78;31.35;;;;;;;;;;6240439;28;20053;-64
2023/01/02 08:24:55;;;;;;;70.88;31.35;;;;;;;;;;6240567;28;20049;-64
2023/01/02 08:27:56;;;;;;;78.20;34.83;;;;;;;;;;6242584;28;20103;-65
2023/01/02 08:30:56;;;;;;;87.93;36.95;;;;;;;;;;6241903;28;20048;-64
2023/01/02 08:33:57;;;;;;;102.85;42.90;;;;;;;;;;6244105;28;20052;-64
2023/01/02 08:36:57;;;;;;;108.90;47.10;;;;;;;;;;6245357;28;20498;-64
2023/01/02 08:39:58;;;;;;;94.18;40.22;;;;;;;;;;6244396;28;20128;-64
2023/01/02 08:42:59;;;;;;;98.45;42.45;;;;;;;;;;6243720;28;20415;-64
2023/01/02 08:46:07;;;;;;;85.75;36.22;;;;;;;;;;6242228;28;20067;-64
2023/01/02 08:49:08;;;;;;;95.32;40.25;;;;;;;;;;6242665;28;20445;-65
2023/01/02 08:52:09;;;;;;;107.60;45.30;;;;;;;;;;6241221;28;21677;-65
2023/01/02 08:55:12;;;;;;;101.65;43.92;;;;;;;;;;6252452;28;20049;-65
2023/01/02 08:58:13;;;;;;;109.22;46.95;;;;;;;;;;6256546;28;20135;-64
2023/01/02 09:01:13;;;;;;;134.20;57.25;;;;;;;;;;6244174;28;20073;-64
2023/01/02 09:04:14;;;;;;;217.07;77.50;;;;;;;;;;6241184;28;20410;-65
2023/01/02 09:07:14;;;;;;;165.68;64.53;;;;;;;;;;6238017;28;20056;-66
2023/01/02 09:10:15;;;;;;;215.15;85.22;;;;;;;;;;6242665;28;20045;-64
2023/01/02 09:13:15;;;;;;;219.48;84.88;;;;;;;;;;6241935;28;20040;-64
2023/01/02 09:16:16;;;;;;;185.00;70.43;;;;;;;;;;6240240;28;20059;-65
2023/01/02 09:19:17;;;;;;;144.38;62.50;;;;;;;;;;6248939;28;20325;-65
2023/01/02 09:22:18;;;;;;;122.57;57.20;;;;;;;;;;6240120;28;20141;-64
2023/01/02 09:25:18;;;;;;;124.10;53.85;;;;;;;;;;6241185;28;20056;-64
2023/01/02 09:28:19;;;;;;;117.63;53.92;;;;;;;;;;6241014;28;20073;-65
2023/01/02 09:31:20;;;;;;;126.28;55.75;;;;;;;;;;6240413;28;20045;-69
2023/01/02 09:34:21;;;;;;;116.43;53.87;;;;;;;;;;6241277;28;20132;-64
2023/01/02 09:37:22;;;;;;;121.70;55.35;;;;;;;;;;6235962;28;20797;-64
2023/01/02 09:40:23;;;;;;;128.65;57.95;;;;;;;;;;6238064;28;20530;-64
2023/01/02 09:43:37;;;;;;;131.07;58.78;;;;;;;;;;6243372;28;20063;-60
2023/01/02 09:46:56;;;;;;;182.10;71.07;;;;;;;;;;6258239;28;20055;-69
2023/01/02 09:50:02;;;;;;;181.30;73.68;;;;;;;;;;6264675;28;20056;-60
2023/01/02 09:53:03;;;;;;;130.55;57.90;;;;;;;;;;6266717;28;20049;-62
2023/01/02 09:56:12;;;;;;;138.23;60.53;;;;;;;;;;6266185;28;20056;-63
2023/01/02 09:59:22;;;;;;;134.45;56.47;;;;;;;;;;6263032;28;20484;-60
2023/01/02 10:02:57;;;;;;;122.72;53.85;;;;;;;;;;6266218;28;20055;-64
2023/01/02 10:06:20;;;;;;;103.10;47.25;;;;;;;;;;6264854;28;20495;-65
2023/01/02 10:09:29;;;;;;;;;;;;;;;;;;6257174;28;20045;-65
2023/01/02 10:12:33;;;;;;;92.50;42.58;;;;;;;;;;6260200;28;20608;-67
2023/01/02 10:15:35;;;;;;;76.65;35.83;;;;;;;;;;6246752;28;20055;-60
2023/01/02 10:18:40;;;;;;;121.65;51.42;;;;;;;;;;6262763;28;20452;-58
2023/01/02 10:21:44;;;;;;;76.20;34.35;;;;;;;;;;6265073;28;20052;-68
2023/01/02 10:25:00;;;;;;;79.35;35.58;;;;;;;;;;6261542;28;20140;-66
2023/01/02 10:28:22;;;;;;;69.95;31.75;;;;;;;;;;6266186;28;20061;-64
2023/01/02 10:31:50;;;;;;;62.45;28.63;;;;;;;;;;6253603;28;20049;-64
2023/01/02 10:34:57;;;;;;;54.55;25.60;;;;;;;;;;6243253;28;20049;-68
2023/01/02 10:37:57;;;;;;;63.97;28.70;;;;;;;;;;6258768;28;20073;-60
2023/01/02 10:40:58;;;;;;;63.35;31.60;;;;;;;;;;6266403;28;20049;-65
2023/01/02 10:44:21;;;;;;;43.47;20.83;;;;;;;;;;6264133;28;20876;-65
2023/01/02 10:47:30;;;;;;;59.58;26.48;;;;;;;;;;6267677;28;20048;-64
2023/01/02 10:50:40;;;;;;;41.83;19.55;;;;;;;;;;6258094;28;20049;-64
2023/01/02 10:53:41;;;;;;;55.72;25.73;;;;;;;;;;6266168;28;20091;-64
2023/01/02 10:56:46;;;;;;;51.72;25.10;;;;;;;;;;6263151;28;20056;-65
2023/01/02 10:59:53;;;;;;;43.65;21.75;;;;;;;;;;6258109;28;20075;-64
2023/01/02 11:02:58;;;;;;;42.17;19.63;;;;;;;;;;6269986;28;20053;-64
2023/01/02 11:06:00;;;;;;;39.10;19.13;;;;;;;;;;6262125;28;20037;-64
2023/01/02 11:09:13;;;;;;;48.85;21.85;;;;;;;;;;6266703;28;20137;-64
2023/01/02 11:12:14;;;;;;;42.10;20.88;;;;;;;;;;6249951;28;20110;-63
2023/01/02 11:15:29;;;;;;;42.22;20.05;;;;;;;;;;6262738;28;20531;-64
2023/01/02 11:18:32;;;;;;;42.55;21.33;;;;;;;;;;6269072;28;20045;-62
2023/01/02 11:21:37;;;;;;;45.75;21.35;;;;;;;;;;6261944;28;20059;-65
2023/01/02 11:24:53;;;;;;;41.40;21.00;;;;;;;;;;6261822;28;20045;-65
2023/01/02 11:27:59;;;;;;;44.35;20.08;;;;;;;;;;6259221;28;20042;-66
2023/01/02 11:31:06;;;;;;;45.85;19.90;;;;;;;;;;6265061;28;20045;-65
2023/01/02 11:34:19;;;;;;;45.67;24.00;;;;;;;;;;6263507;28;20102;-72
2023/01/02 11:37:20;;;;;;;44.92;20.80;;;;;;;;;;6269501;28;20045;-65
2023/01/02 11:40:26;;;;;;;38.45;20.58;;;;;;;;;;6268066;28;20040;-64
2023/01/02 11:43:50;;;;;;;40.55;19.35;;;;;;;;;;6267948;28;20045;-65
2023/01/02 11:46:52;;;;;;;40.95;19.55;;;;;;;;;;6264799;28;20132;-66
2023/01/02 11:49:53;;;;;;;40.28;19.27;;;;;;;;;;6253956;28;20457;-66
2023/01/02 11:53:07;;;;;;;38.58;17.58;;;;;;;;;;6269489;28;20049;-67
2023/01/02 11:56:25;;;;;;;42.15;18.40;;;;;;;;;;6256788;28;20560;-67
2023/01/02 11:59:33;;;;;;;33.53;16.48;;;;;;;;;;6258471;28;20106;-67
2023/01/02 12:02:39;;;;;;;32.63;17.25;;;;;;;;;;6244260;28;20061;-67
2023/01/02 12:06:01;;;;;;;37.53;17.05;;;;;;;;;;6255843;28;20057;-68
2023/01/02 12:09:20;;;;;;;39.53;17.85;;;;;;;;;;6236112;28;20501;-67
2023/01/02 12:12:32;;;;;;;35.75;16.95;;;;;;;;;;6255405;28;20149;-67
2023/01/02 12:15:58;;;;;;;32.88;15.65;;;;;;;;;;6261777;28;20059;-66
2023/01/02 12:19:14;;;;;;;36.38;17.02;;;;;;;;;;6241690;28;20526;-69
2023/01/02 12:22:27;;;;;;;33.50;16.38;;;;;;;;;;6265593;28;20407;-67
2023/01/02 12:25:56;;;;;;;34.65;15.30;;;;;;;;;;6261591;28;20052;-66
2023/01/02 12:29:06;;;;;;;26.90;13.45;;;;;;;;;;6265198;28;20131;-65
2023/01/02 12:32:07;;;;;;;30.98;14.25;;;;;;;;;;6267843;28;20056;-66
2023/01/02 12:35:22;;;;;;;32.13;13.90;;;;;;;;;;6264722;28;20055;-66
2023/01/02 12:38:50;;;;;;;25.88;12.10;;;;;;;;;;6265718;28;20049;-66
2023/01/02 12:42:08;;;;;;;23.30;11.55;;;;;;;;;;6263037;28;20044;-66
2023/01/02 12:45:21;;;;;;;22.50;11.30;;;;;;;;;;6253173;28;20596;-67
2023/01/02 12:48:57;;;;;;;24.58;11.05;;;;;;;;;;6257324;28;20131;-67
2023/01/02 12:52:21;;;;;;;24.85;11.10;;;;;;;;;;6261018;28;20131;-66
2023/01/02 12:55:59;;;;;;;21.55;9.73;;;;;;;;;;6255488;28;20060;-66
2023/01/02 12:59:00;;;;;;;22.17;9.93;;;;;;;;;;6244892;28;20144;-68
2023/01/02 13:02:32;;;;;;;16.85;8.43;;;;;;;;;;6253508;28;20103;-66
2023/01/02 13:05:40;;;;;;;19.23;10.95;;;;;;;;;;6251044;28;20060;-67
2023/01/02 13:08:47;;;;;;;18.77;7.80;;;;;;;;;;6265537;28;20049;-71
2023/01/02 13:12:09;;;;;;;16.17;8.85;;;;;;;;;;6267993;28;20185;-67
2023/01/02 13:15:24;;;;;;;15.68;7.18;;;;;;;;;;6245001;28;20045;-68
2023/01/02 13:18:38;;;;;;;14.98;6.38;;;;;;;;;;6263366;28;20128;-67
2023/01/02 13:21:48;;;;;;;13.80;6.15;;;;;;;;;;6252767;28;20053;-70
2023/01/02 13:24:50;;;;;;;14.25;7.07;;;;;;;;;;6260551;28;20484;-70
2023/01/02 13:27:53;;;;;;;13.73;6.38;;;;;;;;;;6264944;28;20041;-69
2023/01/02 13:31:01;;;;;;;12.52;6.70;;;;;;;;;;6262412;28;20559;-69
2023/01/02 13:34:08;;;;;;;14.15;6.47;;;;;;;;;;6262706;28;20053;-69
2023/01/02 13:37:15;;;;;;;14.68;6.63;;;;;;;;;;6264793;28;20036;-69
2023/01/02 13:40:26;;;;;;;12.30;6.75;;;;;;;;;;6258291;28;20496;-66
2023/01/02 13:43:31;;;;;;;14.40;7.15;;;;;;;;;;6259042;28;20040;-66
2023/01/02 13:46:37;;;;;;;14.85;6.63;;;;;;;;;;6262923;28;20045;-67
2023/01/02 13:49:38;;;;;;;12.75;6.43;;;;;;;;;;6251972;28;20057;-68
2023/01/02 13:52:40;;;;;;;21.27;11.93;;;;;;;;;;6265717;28;20132;-69
2023/01/02 13:55:40;;;;;;;19.83;10.13;;;;;;;;;;6256784;28;20407;-67
2023/01/02 13:58:54;;;;;;;44.15;24.55;;;;;;;;;;6263869;28;20054;-66
2023/01/02 14:01:58;;;;;;;82.57;45.38;;;;;;;;;;6265408;28;20080;-66
2023/01/02 14:04:58;;;;;;;101.07;63.40;;;;;;;;;;6254888;28;20045;-66
2023/01/02 14:08:22;;;;;;;25.35;15.75;;;;;;;;;;6263029;28;20056;-66
2023/01/02 14:11:44;;;;;;;21.58;10.82;;;;;;;;;;6244120;28;20045;-68
2023/01/02 14:14:50;;;;;;;17.95;8.90;;;;;;;;;;6254533;28;20510;-66
2023/01/02 14:18:05;;;;;;;14.23;7.53;;;;;;;;;;6268397;28;20550;-64
2023/01/02 14:21:06;;;;;;;17.33;7.90;;;;;;;;;;6268246;28;20052;-64
2023/01/02 14:24:11;;;;;;;20.80;9.43;;;;;;;;;;6257739;28;20041;-64
2023/01/02 14:27:15;;;;;;;31.65;14.63;;;;;;;;;;6271168;28;20041;-64
2023/01/02 14:30:22;;;;;;;24.63;13.35;;;;;;;;;;6258165;28;20566;-64
2023/01/02 14:33:31;;;;;;;32.50;19.95;;;;;;;;;;6268529;28;20140;-67
2023/01/02 14:36:40;;;;;;;15.85;8.45;;;;;;;;;;6263816;28;20049;-66
2023/01/02 14:39:42;;;;;;;17.55;8.10;;;;;;;;;;6263518;28;20057;-66
2023/01/02 14:46:29;;;;;;;17.77;6.85;;;;;;;;;;6246694;28;20090;-66
2023/01/02 14:49:34;;;;;;;15.80;7.60;;;;;;;;;;6266460;28;20048;-62
2023/01/02 14:52:39;;;;;;;17.08;7.72;;;;;;;;;;6268816;28;20048;-64
2023/01/02 14:55:40;;;;;;;15.57;8.35;;;;;;;;;;6256187;28;20517;-65
2023/01/02 14:58:44;;;;;;;18.67;8.38;;;;;;;;;;6250507;28;20195;-66
2023/01/02 15:01:53;;;;;;;15.70;7.55;;;;;;;;;;6255866;28;20057;-63
2023/01/02 15:05:02;;;;;;;18.27;8.52;;;;;;;;;;6257320;28;20046;-64
2023/01/02 15:08:04;;;;;;;20.50;9.35;;;;;;;;;;6271025;28;20064;-64
2023/01/02 15:14:38;;;;;;;19.48;10.27;;;;;;;;;;6257553;28;20045;-62
2023/01/02 15:17:39;;;;;;;20.15;9.80;;;;;;;;;;6267752;28;20041;-65
2023/01/02 15:20:41;;;;;;;35.65;14.63;;;;;;;;;;6262884;28;20154;-66
2023/01/02 15:23:44;;;;;;;37.33;15.55;;;;;;;;;;6266238;28;20049;-66
2023/01/02 15:26:45;;;;;;;20.00;9.23;;;;;;;;;;6252869;28;20053;-65
2023/01/02 15:29:48;;;;;;;22.02;11.45;;;;;;;;;;6224234;28;20112;-67
2023/01/02 15:32:49;;;;;;;27.52;16.65;;;;;;;;;;6235649;28;20693;-68
2023/01/02 15:36:20;;;;;;;23.73;14.55;;;;;;;;;;6233446;28;20066;-63
2023/01/02 15:39:31;;;;;;;20.63;9.85;;;;;;;;;;6224952;28;20056;-63
2023/01/02 15:45:51;;;;;;;22.23;11.20;;;;;;;;;;6234523;28;20099;-63
2023/01/02 15:48:53;;;;;;;20.13;10.23;;;;;;;;;;6232179;28;20050;-65
2023/01/02 15:51:56;;;;;;;18.25;10.00;;;;;;;;;;6233406;28;20056;-66
2023/01/02 15:54:57;;;;;;;30.30;16.15;;;;;;;;;;6235904;28;20476;-68
2023/01/02 15:57:58;;;;;;;36.27;15.53;;;;;;;;;;6231387;28;20057;-66
2023/01/02 16:01:20;;;;;;;27.75;15.30;;;;;;;;;;6234760;28;20099;-66
2023/01/02 16:04:26;;;;;;;31.75;15.18;;;;;;;;;;6234071;28;20055;-64
2023/01/02 16:07:27;;;;;;;22.48;11.30;;;;;;;;;;6232503;28;20042;-63
2023/01/02 16:10:29;;;;;;;63.97;32.30;;;;;;;;;;6233850;28;20060;-65
2023/01/02 16:17:04;;;;;;;27.38;15.10;;;;;;;;;;6233049;28;20049;-62
2023/01/02 16:20:14;;;;;;;25.02;12.50;;;;;;;;;;6233804;28;20515;-64
2023/01/02 16:23:19;;;;;;;24.55;11.45;;;;;;;;;;6234829;28;20559;-63
2023/01/02 16:26:25;;;;;;;21.23;11.15;;;;;;;;;;6233413;28;20610;-62
2023/01/02 16:29:25;;;;;;;24.05;13.27;;;;;;;;;;6232486;28;20061;-63
2023/01/02 16:32:29;;;;;;;24.15;12.70;;;;;;;;;;6233934;28;20104;-63
2023/01/02 16:35:33;;;;;;;24.75;12.75;;;;;;;;;;6233682;28;20081;-64
2023/01/02 16:39:26;;;;;;;23.80;13.07;;;;;;;;;;6234776;28;20190;-64
2023/01/02 16:42:34;;;;;;;;;;;;;;;;;;6225581;28;20404;-65
2023/01/02 16:45:38;;;;;;;28.58;13.73;;;;;;;;;;6232414;28;20431;-68
2023/01/02 16:48:40;;;;;;;26.77;13.32;;;;;;;;;;6230549;28;20483;-62
2023/01/02 16:51:45;;;;;;;27.13;13.77;;;;;;;;;;6232515;28;20187;-67
2023/01/02 16:54:45;;;;;;;;;;;;;;;;;;6232604;28;20096;-63
2023/01/02 16:57:47;;;;;;;29.50;13.50;;;;;;;;;;6226099;28;19925;-61
2023/01/02 17:00:48;;;;;;;30.48;14.65;;;;;;;;;;6234819;28;20049;-61
2023/01/02 17:03:49;;;;;;;34.03;14.80;;;;;;;;;;6228194;28;20480;-62
2023/01/02 17:06:49;;;;;;;31.63;15.50;;;;;;;;;;6231276;28;20060;-62
2023/01/02 17:09:50;;;;;;;29.33;13.55;;;;;;;;;;6235064;28;20077;-60
2023/01/02 17:12:50;;;;;;;32.20;15.05;;;;;;;;;;6234628;28;20053;-62
2023/01/02 17:15:51;;;;;;;32.95;15.75;;;;;;;;;;6233155;28;20515;-64
2023/01/02 17:18:52;;;;;;;38.78;19.27;;;;;;;;;;6233787;28;20485;-64
2023/01/02 17:21:52;;;;;;;34.17;16.73;;;;;;;;;;6235696;28;20080;-63
2023/01/02 17:24:54;;;;;;;30.95;13.50;;;;;;;;;;6235062;28;20037;-62
2023/01/02 17:27:55;;;;;;;31.17;15.05;;;;;;;;;;6232412;28;20128;-62
2023/01/02 17:30:56;;;;;;;36.28;17.90;;;;;;;;;;6229068;28;20068;-62
2023/01/02 17:34:00;;;;;;;78.00;31.50;;;;;;;;;;6228506;28;20493;-61
2023/01/02 17:37:01;;;;;;;66.35;27.05;;;;;;;;;;6226979;28;20061;-62
2023/01/02 17:40:02;;;;;;;185.10;61.28;;;;;;;;;;6228727;28;20137;-60
2023/01/02 17:43:03;;;;;;;137.00;57.70;;;;;;;;;;6226428;28;20090;-61
2023/01/02 17:46:07;;;;;;;68.67;29.40;;;;;;;;;;6228011;28;20317;-63
2023/01/02 17:49:09;;;;;;;35.55;17.70;;;;;;;;;;6225098;28;20745;-65
2023/01/02 17:52:13;;;;;;;42.45;21.58;;;;;;;;;;6229614;28;20065;-65
2023/01/02 17:55:14;;;;;;;34.38;15.70;;;;;;;;;;6229156;28;20050;-63
2023/01/02 17:58:15;;;;;;;37.30;19.48;;;;;;;;;;6226991;28;20053;-63
2023/01/02 18:01:18;;;;;;;40.70;20.35;;;;;;;;;;6228831;28;20558;-64
2023/01/02 18:04:19;;;;;;;34.13;17.05;;;;;;;;;;6225925;28;20052;-65
2023/01/02 18:07:19;;;;;;;36.50;16.95;;;;;;;;;;6227364;28;20073;-66
2023/01/02 18:10:20;;;;;;;36.78;16.60;;;;;;;;;;6228477;28;20107;-65
2023/01/02 18:13:21;;;;;;;34.58;15.45;;;;;;;;;;6228347;28;20045;-64
2023/01/02 18:16:32;;;;;;;34.85;15.52;;;;;;;;;;6228336;28;20469;-64